Time;durP1;ratioP1;P1;durP2;ratioP2;P2;SDS_P1;SDS_P2;PMS_P1;PMS_P2;Temp;Humidity;BMP_temperature;BMP_pressure;BME280_temperature;BME280_humidity;BME280_pressure;Samples;Min_cycle;Max_cycle;Signal;HPM_P1;HPM_P2
2022/09/16 00:01:12;;;;;;;2.47;1.20;;;15.20;96.20;;;;;;5013828;28;20010;-73
2022/09/16 00:03:38;;;;;;;5.30;2.80;;;15.10;96.20;;;;;;5011896;28;20034;-72
2022/09/16 00:06:03;;;;;;;2.17;1.27;;;15.10;96.20;;;;;;5007032;28;20030;-72
2022/09/16 00:08:30;;;;;;;1.92;1.20;;;15.10;96.20;;;;;;4994384;28;20048;-72
2022/09/16 00:11:00;;;;;;;3.13;1.13;;;15.00;96.20;;;;;;5010999;28;20036;-72
2022/09/16 00:13:26;;;;;;;4.57;1.55;;;15.00;96.20;;;;;;5002142;28;20037;-71
2022/09/16 00:15:52;;;;;;;3.53;1.23;;;15.00;96.20;;;;;;5012737;28;20026;-71
2022/09/16 00:18:19;;;;;;;3.58;1.42;;;15.00;96.30;;;;;;5012069;28;20480;-72
2022/09/16 00:20:47;;;;;;;3.53;1.20;;;15.00;96.30;;;;;;4997299;28;20037;-72
2022/09/16 00:23:13;;;;;;;3.17;1.30;;;15.00;96.30;;;;;;5011743;28;20021;-72
2022/09/16 00:25:38;;;;;;;2.75;1.17;;;15.00;96.30;;;;;;4994838;28;20331;-72
2022/09/16 00:28:04;;;;;;;2.38;1.20;;;14.90;96.20;;;;;;4990532;28;20042;-73
2022/09/16 00:30:30;;;;;;;3.40;1.20;;;14.90;96.20;;;;;;4993716;28;20035;-71
2022/09/16 00:32:55;;;;;;;3.92;1.50;;;14.90;96.20;;;;;;5007586;28;20050;-73
2022/09/16 00:35:21;;;;;;;2.78;1.30;;;14.80;96.30;;;;;;5012903;28;20523;-72
2022/09/16 00:37:47;;;;;;;2.08;1.25;;;14.90;96.30;;;;;;5009939;28;20079;-72
2022/09/16 00:40:12;;;;;;;3.28;1.38;;;14.90;96.40;;;;;;4995445;28;20018;-72
2022/09/16 00:42:39;;;;;;;3.38;1.45;;;14.80;96.40;;;;;;4994749;28;20034;-72
2022/09/16 00:45:17;;;;;;;2.50;1.38;;;14.80;96.40;;;;;;5010975;28;20026;-71
2022/09/16 00:47:52;;;;;;;3.22;1.40;;;14.80;96.40;;;;;;5007963;28;20037;-72
2022/09/16 00:50:26;;;;;;;3.95;1.25;;;14.80;96.40;;;;;;5013075;28;20092;-72
2022/09/16 00:52:52;;;;;;;2.53;1.05;;;14.80;96.30;;;;;;5010356;28;20034;-72
2022/09/16 00:55:26;;;;;;;3.55;1.40;;;14.80;96.30;;;;;;4993089;28;20061;-71
2022/09/16 00:57:55;;;;;;;4.72;1.30;;;14.70;96.30;;;;;;4996202;28;20068;-72
2022/09/16 01:00:21;;;;;;;2.45;1.27;;;14.70;96.40;;;;;;5012863;28;20062;-72
2022/09/16 01:02:49;;;;;;;2.42;1.00;;;14.70;96.40;;;;;;5010426;28;20033;-71
2022/09/16 01:05:18;;;;;;;3.17;1.33;;;14.70;96.50;;;;;;5012693;28;20025;-71
2022/09/16 01:07:43;;;;;;;3.28;1.30;;;14.70;96.50;;;;;;5011945;28;20133;-72
2022/09/16 01:10:11;;;;;;;3.70;1.00;;;14.70;96.50;;;;;;5012171;28;20532;-72
2022/09/16 01:12:38;;;;;;;3.25;1.38;;;14.70;96.60;;;;;;5011029;28;20034;-72
2022/09/16 01:15:06;;;;;;;4.50;1.60;;;14.70;96.60;;;;;;5012663;28;20493;-72
2022/09/16 01:17:34;;;;;;;3.42;1.17;;;14.60;96.60;;;;;;5011270;28;20041;-72
2022/09/16 01:20:36;;;;;;;2.42;1.13;;;14.70;96.80;;;;;;5010826;28;20037;-73
2022/09/16 01:23:22;;;;;;;2.55;1.40;;;14.60;96.80;;;;;;5010495;28;20124;-72
2022/09/16 01:26:21;;;;;;;2.60;1.55;;;14.60;96.80;;;;;;5010468;28;20492;-72
2022/09/16 01:29:13;;;;;;;3.05;1.60;;;14.60;96.90;;;;;;5010509;28;20060;-70
2022/09/16 01:31:45;;;;;;;4.15;2.13;;;14.60;96.90;;;;;;4992932;28;20410;-71
2022/09/16 01:34:18;;;;;;;4.13;1.67;;;14.60;97.00;;;;;;5006651;28;20045;-72
2022/09/16 01:37:10;;;;;;;1.75;1.15;;;14.50;97.00;;;;;;4994678;28;20362;-72
2022/09/16 01:40:06;;;;;;;3.92;1.30;;;14.50;97.20;;;;;;5009495;28;20132;-71
2022/09/16 01:42:40;;;;;;;4.30;1.70;;;14.50;97.20;;;;;;5010903;28;20392;-72
2022/09/16 01:45:21;;;;;;;2.35;1.65;;;14.50;97.30;;;;;;5012117;28;20563;-72
2022/09/16 01:47:59;;;;;;;1.70;1.20;;;14.50;97.40;;;;;;5010118;28;20439;-72
2022/09/16 01:50:45;;;;;;;3.67;1.30;;;14.40;97.40;;;;;;4999807;28;20423;-71
2022/09/16 01:53:47;;;;;;;5.15;1.58;;;14.40;97.50;;;;;;5010916;28;20114;-71
2022/09/16 01:57:07;;;;;;;3.08;1.70;;;14.40;97.50;;;;;;4977210;28;20077;-72
2022/09/16 01:59:44;;;;;;;2.67;1.40;;;14.40;97.50;;;;;;4948383;28;20372;-72
2022/09/16 02:02:49;;;;;;;4.05;1.52;;;14.30;97.60;;;;;;4997393;28;20061;-71
2022/09/16 02:05:32;;;;;;;3.53;1.40;;;14.30;97.60;;;;;;4991592;28;20034;-71
2022/09/16 02:08:11;;;;;;;2.67;1.63;;;14.30;97.80;;;;;;4996506;28;20061;-72
2022/09/16 02:10:46;;;;;;;4.10;1.58;;;14.30;97.80;;;;;;5011622;28;20026;-72
2022/09/16 02:13:26;;;;;;;4.53;1.88;;;14.20;97.90;;;;;;5008736;28;20068;-72
2022/09/16 02:15:58;;;;;;;5.55;1.55;;;14.30;98.00;;;;;;5011847;28;20030;-72
2022/09/16 02:18:29;;;;;;;14.73;2.80;;;14.20;98.00;;;;;;5009826;28;20377;-72
2022/09/16 02:20:56;;;;;;;4.10;1.65;;;14.20;98.10;;;;;;4994060;28;20143;-72
2022/09/16 02:23:27;;;;;;;3.55;1.60;;;14.30;98.20;;;;;;5010629;28;20065;-72
2022/09/16 02:25:54;;;;;;;5.18;2.05;;;14.20;98.20;;;;;;5010709;28;20485;-72
2022/09/16 02:28:25;;;;;;;5.40;2.10;;;14.20;98.50;;;;;;5010405;28;20066;-71
2022/09/16 02:30:54;;;;;;;7.18;1.80;;;14.20;98.30;;;;;;5011587;28;20034;-72
2022/09/16 02:33:23;;;;;;;3.30;1.67;;;14.20;98.30;;;;;;5010951;28;20049;-72
2022/09/16 02:35:53;;;;;;;4.25;2.45;;;14.20;98.40;;;;;;4992960;28;20072;-72
2022/09/16 02:38:32;;;;;;;5.35;2.35;;;14.20;98.40;;;;;;5005425;28;20026;-71
2022/09/16 02:41:00;;;;;;;6.72;2.65;;;14.20;98.70;;;;;;5010000;28;20022;-72
2022/09/16 02:43:26;;;;;;;4.43;2.30;;;14.20;98.50;;;;;;5006638;28;20121;-72
2022/09/16 02:46:23;;;;;;;3.50;2.00;;;14.10;98.50;;;;;;5008856;28;20030;-72
2022/09/16 02:49:40;;;;;;;5.70;2.13;;;14.20;98.60;;;;;;5003823;28;20037;-73
2022/09/16 02:52:06;;;;;;;5.35;2.00;;;14.10;98.50;;;;;;4993491;28;20042;-74
2022/09/16 02:54:32;;;;;;;5.18;2.08;;;14.10;98.50;;;;;;5013054;28;20096;-73
2022/09/16 02:56:58;;;;;;;5.85;2.17;;;14.10;98.60;;;;;;5015412;28;20497;-72
2022/09/16 02:59:24;;;;;;;4.57;1.65;;;14.10;98.70;;;;;;5013425;28;20080;-71
2022/09/16 03:01:49;;;;;;;4.25;2.10;;;14.10;98.80;;;;;;4997702;28;20079;-71
2022/09/16 03:04:17;;;;;;;3.95;2.10;;;14.00;98.90;;;;;;5013467;28;20584;-72
2022/09/16 03:06:44;;;;;;;4.93;2.70;;;14.00;98.90;;;;;;5014808;28;20068;-71
2022/09/16 03:09:12;;;;;;;3.75;1.92;;;14.00;98.90;;;;;;5013125;28;20081;-72
2022/09/16 03:11:37;;;;;;;3.72;1.70;;;14.00;99.00;;;;;;5014835;28;20161;-71
2022/09/16 03:14:11;;;;;;;3.13;2.03;;;14.00;99.00;;;;;;5012842;28;20592;-70
2022/09/16 03:17:14;;;;;;;4.75;2.17;;;14.00;99.10;;;;;;5013001;28;20033;-70
2022/09/16 03:19:54;;;;;;;3.67;1.75;;;14.00;99.10;;;;;;5011844;28;20025;-71
2022/09/16 03:22:30;;;;;;;4.15;1.90;;;14.00;99.10;;;;;;5013809;28;20025;-71
2022/09/16 03:25:34;;;;;;;4.90;1.90;;;14.00;99.10;;;;;;4985763;28;20388;-71
2022/09/16 03:28:17;;;;;;;4.68;2.00;;;14.00;99.10;;;;;;4998562;28;20075;-71
2022/09/16 03:31:03;;;;;;;2.80;1.50;;;14.00;99.20;;;;;;5014303;28;20040;-71
2022/09/16 03:33:39;;;;;;;2.15;1.40;;;14.00;99.20;;;;;;4955747;28;20117;-71
2022/09/16 03:36:08;;;;;;;4.95;1.70;;;14.00;99.30;;;;;;5014262;28;20026;-71
2022/09/16 03:38:36;;;;;;;4.60;1.90;;;14.00;99.30;;;;;;5012421;28;20037;-71
2022/09/16 03:41:06;;;;;;;4.82;1.85;;;14.00;99.30;;;;;;5012938;28;20034;-71
2022/09/16 03:43:32;;;;;;;3.30;1.73;;;14.00;99.40;;;;;;5004109;28;20427;-71
2022/09/16 03:45:57;;;;;;;4.25;1.80;;;14.00;99.40;;;;;;5013175;28;20030;-70
2022/09/16 03:48:23;;;;;;;4.80;1.73;;;14.00;99.40;;;;;;4990932;28;20034;-71
2022/09/16 03:50:48;;;;;;;6.95;1.83;;;14.00;99.50;;;;;;5001934;28;20493;-71
2022/09/16 03:53:14;;;;;;;5.45;1.80;;;14.00;99.50;;;;;;5012744;28;20042;-71
2022/09/16 03:55:40;;;;;;;5.53;2.10;;;14.10;99.50;;;;;;5013694;28;20030;-71
2022/09/16 03:58:05;;;;;;;3.97;1.98;;;14.10;99.50;;;;;;5006875;28;20040;-71
2022/09/16 04:00:31;;;;;;;4.35;1.90;;;14.10;99.50;;;;;;5012910;28;20038;-71
2022/09/16 04:02:58;;;;;;;4.38;2.10;;;14.10;99.50;;;;;;5011559;28;20061;-71
2022/09/16 04:05:23;;;;;;;6.97;2.00;;;14.10;99.50;;;;;;5013748;28;20829;-71
2022/09/16 04:07:49;;;;;;;9.35;2.63;;;14.10;99.50;;;;;;5010610;28;20113;-71
2022/09/16 04:10:15;;;;;;;5.05;2.00;;;14.20;99.50;;;;;;5013878;28;20030;-71
2022/09/16 04:12:40;;;;;;;4.85;2.00;;;14.20;99.40;;;;;;5006146;28;20022;-72
2022/09/16 04:15:06;;;;;;;5.75;2.20;;;14.20;99.40;;;;;;5012587;28;20034;-71
2022/09/16 04:17:33;;;;;;;3.47;2.25;;;14.20;99.30;;;;;;5005180;28;20034;-72
2022/09/16 04:19:59;;;;;;;6.28;2.20;;;14.20;99.30;;;;;;5022494;28;20034;-72
2022/09/16 04:22:28;;;;;;;6.40;2.22;;;14.20;99.30;;;;;;5012288;28;20114;-71
2022/09/16 04:24:53;;;;;;;5.50;2.10;;;14.20;99.40;;;;;;4996725;28;20061;-71
2022/09/16 04:27:19;;;;;;;4.13;2.28;;;14.30;99.40;;;;;;4994990;28;20093;-71
2022/09/16 04:29:44;;;;;;;6.70;2.55;;;14.30;99.30;;;;;;5012667;28;20121;-70
2022/09/16 04:32:10;;;;;;;4.57;2.35;;;14.20;99.30;;;;;;5013358;28;20101;-72
2022/09/16 04:34:35;;;;;;;4.95;2.85;;;14.20;99.30;;;;;;5011349;28;20034;-72
2022/09/16 04:37:01;;;;;;;4.35;2.03;;;14.20;99.30;;;;;;5010231;28;20026;-72
2022/09/16 04:39:27;;;;;;;3.47;2.13;;;14.20;99.30;;;;;;5010217;28;20080;-72
2022/09/16 04:41:52;;;;;;;4.75;2.47;;;14.20;99.30;;;;;;5013676;28;20025;-72
2022/09/16 04:44:18;;;;;;;3.30;2.00;;;14.20;99.30;;;;;;5010991;28;20033;-71
2022/09/16 04:46:46;;;;;;;6.93;2.38;;;14.20;99.30;;;;;;4999546;28;20031;-71
2022/09/16 04:49:12;;;;;;;4.28;2.35;;;14.20;99.30;;;;;;5005885;28;20030;-72
2022/09/16 04:51:37;;;;;;;5.88;2.45;;;14.20;99.30;;;;;;5012836;28;20026;-72
2022/09/16 04:54:03;;;;;;;6.40;2.20;;;14.10;99.30;;;;;;5011364;28;20436;-70
2022/09/16 04:56:31;;;;;;;4.57;2.25;;;14.20;99.30;;;;;;5012398;28;20080;-70
2022/09/16 04:59:02;;;;;;;4.90;2.03;;;14.20;99.30;;;;;;5012092;28;20117;-71
2022/09/16 05:01:31;;;;;;;5.63;2.28;;;14.10;99.30;;;;;;5009504;28;20534;-70
2022/09/16 05:03:59;;;;;;;8.23;2.25;;;14.20;99.30;;;;;;5011829;28;20045;-71
2022/09/16 05:06:28;;;;;;;4.75;2.17;;;14.20;99.30;;;;;;5011846;28;20096;-72
2022/09/16 05:08:55;;;;;;;3.72;2.05;;;14.20;99.20;;;;;;5011080;28;20028;-70
2022/09/16 05:11:29;;;;;;;3.03;1.80;;;14.20;99.20;;;;;;5012895;28;20080;-70
2022/09/16 05:13:59;;;;;;;4.55;2.08;;;14.20;99.20;;;;;;5010807;28;20516;-70
2022/09/16 05:16:26;;;;;;;6.10;2.47;;;14.20;99.20;;;;;;5012400;28;20044;-70
2022/09/16 05:18:57;;;;;;;3.90;1.80;;;14.10;99.20;;;;;;5005530;28;20025;-70
2022/09/16 05:21:25;;;;;;;7.32;2.10;;;14.10;99.20;;;;;;5011596;28;20022;-71
2022/09/16 05:23:51;;;;;;;5.95;1.77;;;14.10;99.10;;;;;;5000918;28;20023;-70
2022/09/16 05:26:19;;;;;;;3.53;1.83;;;14.10;99.20;;;;;;5000405;28;20045;-70
2022/09/16 05:28:45;;;;;;;6.43;2.35;;;14.10;99.20;;;;;;4993464;28;20034;-69
2022/09/16 05:31:18;;;;;;;3.75;1.75;;;14.10;99.20;;;;;;5002558;28;20519;-69
2022/09/16 05:33:46;;;;;;;4.70;1.92;;;14.20;99.20;;;;;;5009782;28;20044;-70
2022/09/16 05:36:15;;;;;;;3.95;1.85;;;14.20;99.20;;;;;;5011146;28;20080;-71
2022/09/16 05:38:41;;;;;;;3.95;1.85;;;14.20;99.20;;;;;;5011193;28;20364;-71
2022/09/16 05:41:07;;;;;;;4.03;1.80;;;14.20;99.20;;;;;;5011903;28;20030;-71
2022/09/16 05:43:33;;;;;;;4.38;1.92;;;14.20;99.20;;;;;;5002322;28;20563;-71
2022/09/16 05:46:00;;;;;;;4.85;1.95;;;14.20;99.10;;;;;;4985987;28;20373;-71
2022/09/16 05:48:26;;;;;;;5.30;2.17;;;14.30;99.10;;;;;;4998769;28;20037;-71
2022/09/16 05:50:55;;;;;;;2.63;1.73;;;14.30;99.10;;;;;;5000363;28;20076;-72
2022/09/16 05:53:22;;;;;;;4.28;1.70;;;14.30;99.00;;;;;;5011154;28;20045;-72
2022/09/16 05:56:05;;;;;;;4.25;1.65;;;14.30;99.10;;;;;;5003077;28;20032;-71
2022/09/16 05:58:32;;;;;;;4.68;2.10;;;14.30;99.10;;;;;;5009744;28;20101;-73
2022/09/16 06:01:05;;;;;;;6.50;2.30;;;14.40;99.10;;;;;;5008336;28;20022;-73
2022/09/16 06:03:33;;;;;;;4.30;1.80;;;14.40;99.00;;;;;;5008056;28;20125;-71
2022/09/16 06:06:12;;;;;;;3.88;1.63;;;14.40;98.90;;;;;;5006208;28;20029;-72
2022/09/16 06:08:39;;;;;;;9.30;2.00;;;14.40;98.90;;;;;;4985812;28;20029;-71
2022/09/16 06:11:07;;;;;;;5.50;1.80;;;14.40;98.80;;;;;;4997064;28;20089;-71
2022/09/16 06:13:34;;;;;;;4.18;1.88;;;14.40;98.80;;;;;;5005412;28;20103;-71
2022/09/16 06:16:00;;;;;;;5.00;1.70;;;14.50;98.80;;;;;;5013661;28;20026;-71
2022/09/16 06:18:28;;;;;;;4.00;1.58;;;14.50;98.80;;;;;;5013760;28;20125;-71
2022/09/16 06:20:54;;;;;;;4.07;1.70;;;14.50;98.80;;;;;;5012352;28;20026;-71
2022/09/16 06:23:21;;;;;;;3.00;1.80;;;14.50;98.80;;;;;;5012611;28;20033;-71
2022/09/16 06:25:47;;;;;;;9.73;1.80;;;14.60;98.70;;;;;;5004189;28;20056;-71
2022/09/16 06:28:13;;;;;;;5.10;2.30;;;14.60;98.70;;;;;;5010302;28;20037;-73
2022/09/16 06:30:39;;;;;;;4.78;1.98;;;14.70;98.70;;;;;;5006059;28;20390;-72
2022/09/16 06:33:06;;;;;;;3.45;1.83;;;14.70;98.60;;;;;;5008533;28;20044;-73
2022/09/16 06:35:34;;;;;;;3.70;1.70;;;14.80;98.50;;;;;;4996075;28;20042;-72
2022/09/16 06:38:00;;;;;;;6.60;2.00;;;14.80;98.40;;;;;;5001024;28;20137;-74
2022/09/16 06:40:26;;;;;;;5.15;2.13;;;14.80;98.30;;;;;;4993577;28;20030;-73
2022/09/16 06:42:55;;;;;;;4.20;1.77;;;14.90;98.30;;;;;;4999292;28;20029;-73
2022/09/16 06:45:21;;;;;;;6.53;2.25;;;14.90;98.50;;;;;;5000915;28;20026;-73
2022/09/16 06:47:47;;;;;;;4.70;1.92;;;14.90;98.40;;;;;;5012770;28;20018;-73
2022/09/16 06:50:12;;;;;;;5.28;1.95;;;14.90;98.20;;;;;;5014301;28;20066;-72
2022/09/16 06:52:38;;;;;;;3.33;1.80;;;15.00;98.10;;;;;;4993406;28;20464;-73
2022/09/16 06:55:04;;;;;;;5.10;1.98;;;15.00;98.00;;;;;;5013615;28;20390;-72
2022/09/16 06:57:30;;;;;;;5.07;1.75;;;15.00;97.90;;;;;;5011599;28;20537;-72
2022/09/16 06:59:55;;;;;;;5.18;1.92;;;15.00;97.90;;;;;;5011539;28;20034;-72
2022/09/16 07:02:22;;;;;;;5.47;1.80;;;15.00;97.80;;;;;;5016065;28;20215;-71
2022/09/16 07:04:48;;;;;;;5.00;2.00;;;15.00;97.90;;;;;;4995892;28;20034;-71
2022/09/16 07:07:13;;;;;;;6.07;2.00;;;15.00;97.90;;;;;;5001377;28;20041;-71
2022/09/16 07:09:41;;;;;;;3.30;1.75;;;15.10;97.80;;;;;;5019121;28;20068;-72
2022/09/16 07:12:07;;;;;;;4.35;2.28;;;15.10;97.70;;;;;;5012493;28;20027;-72
2022/09/16 07:14:33;;;;;;;4.03;2.22;;;15.10;97.60;;;;;;5014812;28;20104;-72
2022/09/16 07:16:59;;;;;;;5.57;2.38;;;15.20;97.70;;;;;;5016023;28;20038;-72
2022/09/16 07:19:26;;;;;;;7.18;2.20;;;15.30;97.60;;;;;;5018921;28;20121;-72
2022/09/16 07:21:52;;;;;;;6.07;2.50;;;15.30;97.60;;;;;;5011846;28;20034;-72
2022/09/16 07:24:18;;;;;;;4.07;2.08;;;15.30;97.50;;;;;;5020340;28;20094;-72
2022/09/16 07:26:45;;;;;;;5.05;1.92;;;15.40;97.40;;;;;;5021884;28;20066;-72
2022/09/16 07:29:16;;;;;;;5.50;1.92;;;15.50;97.40;;;;;;5018909;28;20029;-72
2022/09/16 07:31:41;;;;;;;4.43;1.75;;;15.60;97.30;;;;;;5013663;28;20022;-72
2022/09/16 07:34:09;;;;;;;7.57;1.90;;;15.60;97.40;;;;;;5012818;28;20084;-72
2022/09/16 07:36:38;;;;;;;4.55;2.17;;;15.70;97.10;;;;;;4994798;28;20026;-73
2022/09/16 07:39:04;;;;;;;9.05;2.30;;;15.70;97.10;;;;;;5013325;28;20481;-73
2022/09/16 07:41:33;;;;;;;4.70;2.10;;;15.80;97.00;;;;;;4997789;28;20034;-72
2022/09/16 07:44:00;;;;;;;5.20;2.33;;;15.80;96.90;;;;;;5011470;28;20034;-72
2022/09/16 07:46:28;;;;;;;3.42;1.80;;;16.00;96.90;;;;;;4997840;28;20091;-73
2022/09/16 07:48:55;;;;;;;5.35;1.77;;;15.90;96.70;;;;;;5008181;28;20026;-72
2022/09/16 07:51:23;;;;;;;7.60;2.13;;;16.00;96.50;;;;;;5008493;28;20030;-73
2022/09/16 07:53:58;;;;;;;4.85;1.58;;;16.00;96.50;;;;;;5006862;28;20416;-72
2022/09/16 07:56:25;;;;;;;3.97;1.55;;;16.00;96.30;;;;;;5000831;28;20041;-72
2022/09/16 07:58:52;;;;;;;3.90;1.90;;;16.10;96.20;;;;;;4992398;28;20605;-73
2022/09/16 08:01:18;;;;;;;3.38;1.58;;;16.10;96.10;;;;;;4996592;28;20088;-73
2022/09/16 08:03:45;;;;;;;3.63;1.60;;;16.20;96.20;;;;;;4997148;28;20465;-73
2022/09/16 08:06:16;;;;;;;2.78;1.40;;;16.30;96.20;;;;;;5004759;28;20022;-73
2022/09/16 08:08:42;;;;;;;5.25;2.28;;;16.30;96.00;;;;;;4996738;28;20237;-73
2022/09/16 08:11:08;;;;;;;3.20;1.52;;;16.40;95.90;;;;;;5011398;28;20443;-73
2022/09/16 08:13:35;;;;;;;4.97;1.63;;;16.50;95.80;;;;;;5001834;28;20405;-73
2022/09/16 08:16:13;;;;;;;4.60;1.63;;;16.50;95.60;;;;;;5011025;28;20057;-73
2022/09/16 08:18:39;;;;;;;6.13;2.05;;;16.60;95.60;;;;;;5003083;28;20033;-73
2022/09/16 08:21:12;;;;;;;4.70;1.55;;;16.70;95.60;;;;;;5011172;28;20046;-73
2022/09/16 08:23:39;;;;;;;3.78;1.45;;;16.70;95.40;;;;;;5001373;28;20030;-72
2022/09/16 08:26:07;;;;;;;3.92;1.48;;;16.80;95.30;;;;;;5010972;28;20092;-73
2022/09/16 08:28:33;;;;;;;5.72;1.50;;;16.90;95.20;;;;;;5010672;28;20116;-73
2022/09/16 08:30:59;;;;;;;3.17;1.15;;;17.00;95.10;;;;;;5010294;28;20033;-73
2022/09/16 08:33:25;;;;;;;3.35;1.30;;;17.00;95.00;;;;;;5009946;28;20037;-73
2022/09/16 08:36:07;;;;;;;2.58;1.40;;;17.10;94.90;;;;;;5008967;28;20030;-73
2022/09/16 08:38:33;;;;;;;2.60;1.38;;;17.20;94.90;;;;;;5004429;28;20317;-73
2022/09/16 08:41:13;;;;;;;4.65;1.52;;;17.30;94.80;;;;;;5012663;28;20108;-73
2022/09/16 08:44:14;;;;;;;5.50;1.40;;;17.30;94.60;;;;;;5000777;28;20038;-73
2022/09/16 08:46:51;;;;;;;4.63;1.70;;;17.40;94.50;;;;;;4988618;28;20120;-70
2022/09/16 08:49:40;;;;;;;3.42;1.60;;;17.50;94.50;;;;;;5008496;28;20045;-70
2022/09/16 08:52:37;;;;;;;4.60;1.80;;;17.60;94.30;;;;;;5010344;28;20205;-70
2022/09/16 08:55:15;;;;;;;3.25;1.40;;;17.70;94.20;;;;;;4996173;28;20451;-71
2022/09/16 08:58:15;;;;;;;2.92;1.33;;;17.70;93.90;;;;;;5008720;28;20092;-71
2022/09/16 09:00:43;;;;;;;3.22;1.40;;;17.70;93.70;;;;;;5002355;28;20132;-71
2022/09/16 09:03:35;;;;;;;4.47;1.45;;;17.80;93.40;;;;;;5010803;28;20062;-70
2022/09/16 09:06:05;;;;;;;2.90;1.63;;;17.70;93.40;;;;;;4992859;28;20065;-70
2022/09/16 09:08:51;;;;;;;3.90;1.60;;;17.70;93.10;;;;;;5003276;28;20130;-69
2022/09/16 09:11:25;;;;;;;4.15;1.45;;;17.70;92.90;;;;;;4991459;28;20093;-70
2022/09/16 09:13:58;;;;;;;3.78;1.30;;;17.70;93.00;;;;;;5006620;28;20041;-70
2022/09/16 09:16:29;;;;;;;4.05;1.50;;;17.70;92.70;;;;;;5011110;28;20026;-70
2022/09/16 09:18:55;;;;;;;2.97;1.45;;;17.70;92.50;;;;;;5009450;28;20128;-70
2022/09/16 09:21:23;;;;;;;3.40;1.33;;;17.70;92.00;;;;;;4998807;28;20104;-70
2022/09/16 09:24:25;;;;;;;4.43;1.38;;;17.70;92.30;;;;;;5010253;28;20036;-70
2022/09/16 09:26:57;;;;;;;5.57;2.17;;;17.70;92.20;;;;;;5001741;28;20400;-70
2022/09/16 09:29:43;;;;;;;3.78;1.50;;;17.70;92.10;;;;;;5008010;28;20076;-70
2022/09/16 09:32:38;;;;;;;6.03;1.70;;;17.70;92.10;;;;;;5005139;28;20029;-71
2022/09/16 09:35:20;;;;;;;3.53;1.60;;;17.70;92.00;;;;;;5006542;28;20057;-68
2022/09/16 09:38:00;;;;;;;4.13;1.30;;;17.70;91.90;;;;;;5010215;28;20524;-69
2022/09/16 09:40:46;;;;;;;4.68;1.95;;;17.60;91.80;;;;;;5008915;28;20072;-69
2022/09/16 09:43:33;;;;;;;5.40;1.35;;;17.70;91.80;;;;;;5008041;28;20029;-69
2022/09/16 09:46:25;;;;;;;4.72;1.60;;;17.70;91.90;;;;;;4994625;28;20030;-70
2022/09/16 09:49:08;;;;;;;4.65;1.70;;;17.90;91.70;;;;;;5006959;28;20038;-70
2022/09/16 09:51:41;;;;;;;2.97;1.40;;;18.00;91.70;;;;;;5004682;28;20030;-69
2022/09/16 09:54:25;;;;;;;6.40;2.40;;;18.10;91.30;;;;;;5000822;28;20052;-68
2022/09/16 09:56:58;;;;;;;4.55;1.40;;;18.20;91.00;;;;;;4997654;28;20030;-70
2022/09/16 09:59:40;;;;;;;5.28;1.85;;;18.20;90.50;;;;;;5008473;28;20500;-69
2022/09/16 10:02:21;;;;;;;4.88;1.58;;;18.30;90.20;;;;;;5011909;28;20065;-70
2022/09/16 10:04:47;;;;;;;5.53;2.03;;;18.40;90.10;;;;;;5007948;28;20117;-69
2022/09/16 10:07:16;;;;;;;4.03;1.30;;;18.40;88.20;;;;;;4974851;28;20033;-69
2022/09/16 10:09:59;;;;;;;5.72;1.70;;;18.40;88.20;;;;;;5001536;28;20034;-70
2022/09/16 10:12:30;;;;;;;4.93;1.50;;;18.40;86.80;;;;;;4992666;28;20029;-70
2022/09/16 10:14:56;;;;;;;3.08;1.40;;;18.40;86.00;;;;;;4991829;28;20501;-69
2022/09/16 10:17:21;;;;;;;5.20;1.42;;;18.40;86.20;;;;;;4991961;28;20068;-69
2022/09/16 10:19:54;;;;;;;8.05;1.98;;;18.40;86.20;;;;;;5007093;28;20030;-68
2022/09/16 10:22:29;;;;;;;6.45;1.58;;;18.30;84.50;;;;;;4973962;28;20060;-70
2022/09/16 10:24:59;;;;;;;5.63;1.67;;;18.30;85.40;;;;;;4991451;28;20134;-69
2022/09/16 10:27:34;;;;;;;4.47;1.17;;;18.20;84.80;;;;;;5005434;28;20210;-70
2022/09/16 10:30:20;;;;;;;3.63;1.42;;;18.20;84.50;;;;;;4992195;28;20358;-70
2022/09/16 10:32:48;;;;;;;3.58;1.98;;;18.30;84.90;;;;;;4994916;28;20088;-69
2022/09/16 10:35:22;;;;;;;2.38;1.27;;;18.40;84.40;;;;;;5010646;28;20095;-70
2022/09/16 10:38:02;;;;;;;3.22;1.40;;;18.50;83.90;;;;;;5009594;28;20114;-70
2022/09/16 10:40:28;;;;;;;4.18;1.08;;;18.50;83.50;;;;;;5011740;28;20034;-69
2022/09/16 10:43:00;;;;;;;5.53;1.30;;;18.60;83.50;;;;;;5004161;28;20035;-69
2022/09/16 10:45:32;;;;;;;5.18;1.30;;;18.80;83.20;;;;;;5011575;28;20034;-70
2022/09/16 10:48:02;;;;;;;7.85;1.88;;;18.80;82.80;;;;;;5001391;28;20091;-69
2022/09/16 10:50:28;;;;;;;6.10;1.80;;;18.90;82.60;;;;;;5012548;28;20030;-69
2022/09/16 10:52:54;;;;;;;3.53;1.65;;;19.00;82.30;;;;;;5010414;28;20158;-69
2022/09/16 10:55:35;;;;;;;4.25;1.20;;;19.00;82.20;;;;;;5011573;28;20025;-69
2022/09/16 10:58:08;;;;;;;5.75;1.20;;;19.10;82.30;;;;;;5010659;28;20042;-69
2022/09/16 11:00:49;;;;;;;4.13;1.30;;;19.10;82.00;;;;;;5012812;28;20030;-70
2022/09/16 11:03:46;;;;;;;4.55;1.73;;;19.10;81.90;;;;;;5002780;28;20033;-70
2022/09/16 11:06:42;;;;;;;3.92;1.40;;;19.10;81.80;;;;;;5009946;28;20034;-69
2022/09/16 11:09:13;;;;;;;4.35;1.67;;;19.00;81.00;;;;;;5014214;28;20112;-70
2022/09/16 11:12:04;;;;;;;2.63;1.23;;;19.00;81.40;;;;;;4997581;28;20033;-69
2022/09/16 11:14:44;;;;;;;2.83;1.13;;;18.90;81.40;;;;;;4997662;28;20042;-70
2022/09/16 11:17:36;;;;;;;7.32;1.73;;;18.90;81.10;;;;;;5014676;28;20397;-69
2022/09/16 11:20:37;;;;;;;6.93;1.98;;;19.00;80.30;;;;;;4999478;28;20030;-69
2022/09/16 11:23:25;;;;;;;4.85;1.80;;;19.00;80.30;;;;;;5001123;28;20112;-70
2022/09/16 11:26:17;;;;;;;9.48;1.70;;;19.10;80.00;;;;;;5013585;28;20026;-69
2022/09/16 11:29:09;;;;;;;3.38;1.60;;;19.00;80.00;;;;;;5003949;28;20038;-70
2022/09/16 11:32:02;;;;;;;5.15;1.52;;;19.00;79.70;;;;;;4994753;28;20081;-69
2022/09/16 11:34:55;;;;;;;5.53;1.63;;;19.00;79.70;;;;;;5011559;28;20049;-68
2022/09/16 11:37:21;;;;;;;5.70;1.70;;;18.90;79.60;;;;;;5011245;28;20102;-70
2022/09/16 11:40:08;;;;;;;5.25;1.60;;;18.90;79.70;;;;;;5013411;28;20492;-69
2022/09/16 11:42:40;;;;;;;3.80;1.50;;;18.90;79.30;;;;;;5002107;28;20106;-70
2022/09/16 11:45:37;;;;;;;3.95;1.48;;;18.90;77.90;;;;;;5014413;28;20045;-70
2022/09/16 11:48:32;;;;;;;4.68;1.45;;;18.80;77.20;;;;;;5019169;28;20080;-70
2022/09/16 11:51:33;;;;;;;3.55;1.67;;;18.70;76.80;;;;;;5014280;28;20046;-70
2022/09/16 11:54:17;;;;;;;4.93;1.60;;;18.60;77.60;;;;;;4994546;28;20064;-69
2022/09/16 11:56:51;;;;;;;5.55;1.20;;;18.60;77.60;;;;;;5013926;28;20029;-69
2022/09/16 11:59:40;;;;;;;4.95;1.40;;;18.60;77.70;;;;;;5011451;28;20099;-69
2022/09/16 12:02:28;;;;;;;4.63;1.60;;;18.60;78.00;;;;;;4996099;28;20037;-69
2022/09/16 12:05:05;;;;;;;3.45;1.63;;;18.60;77.50;;;;;;4994333;28;20060;-69
2022/09/16 12:07:34;;;;;;;3.28;1.25;;;18.70;77.50;;;;;;4991268;28;20030;-69
2022/09/16 12:10:25;;;;;;;6.72;1.67;;;18.60;76.60;;;;;;5013277;28;20038;-69
2022/09/16 12:13:05;;;;;;;3.72;1.10;;;18.60;76.90;;;;;;4980357;28;20428;-70
2022/09/16 12:15:38;;;;;;;2.55;1.05;;;18.50;76.20;;;;;;5013989;28;20129;-70
2022/09/16 12:18:18;;;;;;;4.45;1.20;;;18.40;76.10;;;;;;5012761;28;20092;-69
2022/09/16 12:20:49;;;;;;;5.20;1.20;;;18.30;76.10;;;;;;5013760;28;20437;-70
2022/09/16 12:23:19;;;;;;;6.20;1.42;;;18.30;76.60;;;;;;5012377;28;20425;-70
2022/09/16 12:26:00;;;;;;;2.95;1.10;;;18.40;76.40;;;;;;5013269;28;20367;-69
2022/09/16 12:28:34;;;;;;;3.33;1.80;;;18.40;76.40;;;;;;5012367;28;20087;-69
2022/09/16 12:31:24;;;;;;;2.88;1.30;;;18.50;75.50;;;;;;5013975;28;20093;-70
2022/09/16 12:33:59;;;;;;;3.17;1.10;;;18.60;75.10;;;;;;5012216;28;20073;-69
2022/09/16 12:36:30;;;;;;;5.72;1.85;;;18.60;74.00;;;;;;5013532;28;20354;-70
2022/09/16 12:38:59;;;;;;;2.45;1.00;;;18.70;73.70;;;;;;5012377;28;20279;-69
2022/09/16 12:41:45;;;;;;;7.53;1.35;;;18.70;73.70;;;;;;4995230;28;20452;-70
2022/09/16 12:44:46;;;;;;;5.07;1.60;;;18.70;73.60;;;;;;5008380;28;20033;-70
2022/09/16 12:47:34;;;;;;;2.70;1.48;;;18.80;74.00;;;;;;4996971;28;20412;-68
2022/09/16 12:50:41;;;;;;;4.07;1.30;;;18.90;73.50;;;;;;4995414;28;20061;-68
2022/09/16 12:53:48;;;;;;;5.60;1.60;;;18.90;73.80;;;;;;5005167;28;20574;-69
2022/09/16 12:56:47;;;;;;;7.50;1.70;;;19.00;72.70;;;;;;4967769;28;20117;-70
2022/09/16 12:59:39;;;;;;;2.95;1.65;;;19.10;74.00;;;;;;5008611;28;20477;-70
2022/09/16 13:02:18;;;;;;;4.20;1.75;;;19.10;74.00;;;;;;5011915;28;20034;-69
2022/09/16 13:04:48;;;;;;;4.93;1.50;;;19.20;74.00;;;;;;5012305;28;20387;-70
2022/09/16 13:07:34;;;;;;;5.47;1.50;;;19.30;73.40;;;;;;5014141;28;20111;-70
2022/09/16 13:10:06;;;;;;;4.72;1.50;;;19.30;73.30;;;;;;5016464;28;20484;-70
2022/09/16 13:12:32;;;;;;;3.33;1.70;;;19.40;72.60;;;;;;5011819;28;20117;-69
2022/09/16 13:15:04;;;;;;;3.17;1.35;;;19.40;72.70;;;;;;5012359;28;20044;-69
2022/09/16 13:17:37;;;;;;;4.05;1.20;;;19.50;72.90;;;;;;5010795;28;20038;-69
2022/09/16 13:20:25;;;;;;;3.53;1.47;;;19.50;73.00;;;;;;5000344;28;20559;-69
2022/09/16 13:22:54;;;;;;;15.90;2.58;;;19.60;72.20;;;;;;4975539;28;20116;-69